KHFF

Mackall AAF Airport

Camp Mackall, North Carolina, USA
METAR KHFF 231056Z AUTO 00000KT 10SM CLR 04/03 A3020 RMK AO2 SLP244 T00400032 $
Observed Flight Rules
Oct-23 @ 10:56 UTC (54 minutes ago) Visual Flight Rules
Visibility Clouds
10 miles
  • Clear skies
Temperatures Readings
Current 4°C / 39°F
Dewpoint 3°C / 37°F
Humidity 93%
Altimeter 30.2" Hg
Pressure 1024.4 hPa
Elevation 115
METAR KHFF 231056Z AUTO 00000KT 10SM CLR 04/03 A3020 RMK AO2 SLP244 T00400032 $
Observed Flight Rules
Oct-23 @ 10:56 UTC
(54 minutes ago)
VFR
Clouds
  • Clear skies
Temperature Dewpoint
4°C / 39°F 3°C / 37°F
Humidity Altimeter Pressure
93% 30.2" Hg 1024.4 hPa